Time;durP1;ratioP1;P1;durP2;ratioP2;P2;SDS_P1;SDS_P2;PMS_P1;PMS_P2;Temp;Humidity;BMP_temperature;BMP_pressure;BME280_temperature;BME280_humidity;BME280_pressure;Samples;Min_cycle;Max_cycle;Signal;HPM_P1;HPM_P2
2022/09/04 00:00:09;;;;;;;8.88;6.30;;;;;;;17.48;100.00;100521.34;4895457;29;20229;-79
2022/09/04 00:03:08;;;;;;;10.30;6.45;;;;;;;17.49;100.00;100516.97;4840074;29;20740;-79
2022/09/04 00:05:42;;;;;;;8.27;7.30;;;;;;;17.59;100.00;100518.69;4821777;29;20207;-79
2022/09/04 00:08:32;;;;;;;10.23;6.88;;;;;;;17.63;100.00;100531.78;4821251;29;20238;-79
2022/09/04 00:11:08;;;;;;;9.85;7.32;;;;;;;17.74;100.00;100536.94;4820181;29;20215;-79
2022/09/04 00:13:41;;;;;;;10.73;7.88;;;;;;;17.62;100.00;100539.66;4821270;29;20199;-79
2022/09/04 00:16:12;;;;;;;7.70;7.05;;;;;;;17.52;100.00;100540.53;4821613;29;20222;-79
2022/09/04 00:18:46;;;;;;;8.45;7.72;;;;;;;17.55;100.00;100535.31;4821619;29;20250;-79
2022/09/04 00:21:20;;;;;;;23.83;7.93;;;;;;;17.53;100.00;100542.28;4863500;29;20206;-78
2022/09/04 00:23:51;;;;;;;8.20;7.40;;;;;;;17.44;100.00;100542.38;4910408;29;20289;-79
2022/09/04 00:26:38;;;;;;;8.18;7.40;;;;;;;17.64;100.00;100545.75;4925161;29;20291;-79
2022/09/04 00:29:12;;;;;;;12.05;7.65;;;;;;;17.69;100.00;100546.63;4920442;29;20215;-79
2022/09/04 00:31:46;;;;;;;9.77;7.65;;;;;;;17.51;100.00;100520.47;4914376;29;20215;-78
2022/09/04 00:34:29;;;;;;;11.00;7.57;;;;;;;17.69;100.00;100531.72;4871223;29;20216;-79
2022/09/04 00:37:00;;;;;;;9.90;7.85;;;;;;;17.73;100.00;100561.44;4917747;29;20208;-79
2022/09/04 00:39:37;;;;;;;9.00;7.97;;;;;;;17.70;100.00;100546.59;4929844;28;20289;-79
2022/09/04 00:42:22;;;;;;;9.30;7.40;;;;;;;17.34;100.00;100526.66;4976624;28;20201;-79
2022/09/04 00:45:00;;;;;;;10.27;8.35;;;;;;;17.45;100.00;100536.22;4993659;28;20236;-78
2022/09/04 00:47:51;;;;;;;10.15;7.35;;;;;;;17.48;100.00;100542.31;4986451;28;20213;-79
2022/09/04 00:51:00;;;;;;;7.93;7.13;;;;;;;17.45;100.00;100554.56;4992249;28;20233;-79
2022/09/04 00:54:03;;;;;;;8.18;7.38;;;;;;;17.37;100.00;100562.50;4932837;29;20204;-78
2022/09/04 00:56:54;;;;;;;14.18;7.30;;;;;;;17.25;100.00;100534.59;4932165;29;20202;-79
2022/09/04 00:59:34;;;;;;;9.88;7.60;;;;;;;17.51;100.00;100565.91;4932599;29;20750;-79
2022/09/04 01:02:08;;;;;;;8.63;7.78;;;;;;;17.65;100.00;100574.63;4932729;29;20271;-81
2022/09/04 01:04:42;;;;;;;7.57;6.93;;;;;;;17.32;100.00;100556.41;4932031;29;20246;-77
2022/09/04 01:07:40;;;;;;;10.32;8.07;;;;;;;17.56;100.00;100571.13;4929974;29;20690;-78
2022/09/04 01:10:30;;;;;;;8.30;7.53;;;;;;;17.60;100.00;100588.63;4932616;29;20195;-79
2022/09/04 01:13:03;;;;;;;8.05;7.20;;;;;;;17.57;100.00;100583.38;4875915;29;20749;-79
2022/09/04 01:15:40;;;;;;;11.30;7.88;;;;;;;17.66;100.00;100571.09;4844562;29;20205;-76
2022/09/04 01:18:11;;;;;;;8.68;7.85;;;;;;;17.68;100.00;100576.34;4875734;29;20584;-79
2022/09/04 01:20:53;;;;;;;8.05;7.25;;;;;;;17.74;100.00;100592.91;4875268;29;20205;-78
2022/09/04 01:23:52;;;;;;;8.32;7.53;;;;;;;17.66;100.00;100585.94;4876052;29;20202;-78
2022/09/04 01:26:27;;;;;;;12.10;7.53;;;;;;;17.92;100.00;100610.28;4875321;29;20300;-78
2022/09/04 01:29:09;;;;;;;10.55;7.88;;;;;;;18.00;100.00;100603.25;4895902;29;20211;-78
2022/09/04 01:31:44;;;;;;;9.93;7.93;;;;;;;18.09;100.00;100615.41;4902047;29;20269;-79
2022/09/04 01:34:35;;;;;;;8.57;7.38;;;;;;;18.15;100.00;100616.25;4932149;29;20252;-79
2022/09/04 01:37:14;;;;;;;7.68;7.05;;;;;;;18.02;100.00;100611.97;4915964;29;20211;-79
2022/09/04 01:39:45;;;;;;;9.52;8.23;;;;;;;17.82;100.00;100609.47;4932074;29;20231;-79
2022/09/04 01:42:20;;;;;;;8.35;7.72;;;;;;;17.95;100.00;100618.13;4932290;29;20223;-79
2022/09/04 01:44:48;;;;;;;11.60;7.72;;;;;;;17.73;100.00;100585.03;4931814;29;20206;-79
2022/09/04 01:47:18;;;;;;;11.90;7.82;;;;;;;17.94;100.00;100616.41;4932344;29;20199;-79
2022/09/04 01:49:49;;;;;;;8.80;7.75;;;;;;;17.95;100.00;100610.25;4951465;28;20220;-79
2022/09/04 01:52:36;;;;;;;8.63;7.75;;;;;;;17.89;100.00;100607.69;4992188;28;20202;-79
2022/09/04 01:55:13;;;;;;;11.50;8.00;;;;;;;17.95;100.00;100623.38;4992012;28;20197;-78
2022/09/04 01:57:57;;;;;;;8.57;7.70;;;;;;;17.98;100.00;100619.88;4991693;28;20193;-79
2022/09/04 02:00:29;;;;;;;7.85;7.07;;;;;;;17.98;100.00;100623.34;4985632;28;20201;-78
2022/09/04 02:03:02;;;;;;;8.75;7.55;;;;;;;17.88;100.00;100611.19;4991738;28;20205;-79
2022/09/04 02:05:48;;;;;;;8.48;7.68;;;;;;;17.79;100.00;100606.88;4991878;28;20206;-79
2022/09/04 02:08:29;;;;;;;9.85;8.68;;;;;;;17.79;100.00;100603.38;4991197;28;20229;-79
2022/09/04 02:11:03;;;;;;;8.68;7.78;;;;;;;17.78;100.00;100599.00;4989037;28;20252;-79
2022/09/04 02:13:42;;;;;;;10.20;7.93;;;;;;;17.61;100.00;100564.13;4990768;28;20279;-79
2022/09/04 02:16:15;;;;;;;7.85;7.15;;;;;;;17.50;100.00;100571.16;4991552;28;20276;-78
2022/09/04 02:18:50;;;;;;;9.88;7.88;;;;;;;17.59;100.00;100579.88;4991765;28;20253;-79
2022/09/04 02:21:25;;;;;;;11.57;8.15;;;;;;;17.43;100.00;100572.94;4991216;28;20216;-83
2022/09/04 02:24:01;;;;;;;9.35;8.45;;;;;;;17.55;100.00;100559.75;4989498;28;20212;-81
2022/09/04 02:26:33;;;;;;;10.30;8.23;;;;;;;17.66;100.00;100588.56;4991148;28;20197;-82
2022/09/04 02:29:08;;;;;;;11.05;8.25;;;;;;;17.56;100.00;100569.41;4991582;28;20264;-81
2022/09/04 02:31:45;;;;;;;11.02;8.20;;;;;;;17.78;100.00;100593.75;4990984;28;20216;-81
2022/09/04 02:34:24;;;;;;;9.70;8.77;;;;;;;17.68;100.00;100565.84;4991499;28;20208;-80
2022/09/04 02:36:56;;;;;;;18.42;9.05;;;;;;;17.95;100.00;100578.78;4972227;28;20202;-81
2022/09/04 02:39:38;;;;;;;8.45;7.72;;;;;;;17.93;100.00;100598.03;4984221;28;20225;-81
2022/09/04 02:42:12;;;;;;;13.07;8.45;;;;;;;17.92;100.00;100580.53;4972468;28;20198;-81
2022/09/04 02:44:49;;;;;;;12.73;7.13;;;;;;;17.90;100.00;100572.69;4989569;28;20653;-80
2022/09/04 02:47:24;;;;;;;12.63;8.13;;;;;;;17.95;100.00;100591.88;4991769;28;20597;-80
2022/09/04 02:49:59;;;;;;;9.70;7.25;;;;;;;18.00;100.00;100589.25;4991320;28;20197;-82
2022/09/04 02:52:46;;;;;;;10.60;7.65;;;;;;;18.02;100.00;100597.97;4980926;28;20216;-81
2022/09/04 02:55:23;;;;;;;12.57;7.93;;;;;;;17.74;100.00;100597.28;4991176;28;20198;-82
2022/09/04 02:58:07;;;;;;;10.02;8.18;;;;;;;17.70;100.00;100592.91;4990618;28;20596;-82
2022/09/04 03:00:44;;;;;;;8.70;6.85;;;;;;;17.74;100.00;100576.28;4956328;28;20205;-82
2022/09/04 03:03:17;;;;;;;11.65;7.53;;;;;;;17.66;100.00;100557.97;4990948;28;20201;-82
2022/09/04 03:05:50;;;;;;;11.27;8.88;;;;;;;17.77;100.00;100581.50;4992214;28;20669;-82
2022/09/04 03:08:23;;;;;;;12.52;8.57;;;;;;;17.79;100.00;100564.91;4994887;28;20233;-79
2022/09/04 03:10:57;;;;;;;14.45;8.73;;;;;;;17.74;100.00;100571.91;4996277;28;20197;-80
2022/09/04 03:13:30;;;;;;;9.48;8.07;;;;;;;17.54;100.00;100560.66;4996442;28;20201;-82
2022/09/04 03:16:10;;;;;;;12.50;7.57;;;;;;;17.65;100.00;100578.97;4995550;28;20205;-81
2022/09/04 03:18:58;;;;;;;14.10;8.40;;;;;;;17.62;100.00;100592.13;4995039;28;20318;-82
2022/09/04 03:21:32;;;;;;;12.95;8.15;;;;;;;17.58;100.00;100586.03;4994140;28;20201;-80
2022/09/04 03:24:07;;;;;;;11.32;8.38;;;;;;;17.63;100.00;100585.97;4993681;28;20201;-82
2022/09/04 03:26:37;;;;;;;11.45;8.93;;;;;;;17.69;100.00;100588.59;4993299;28;20661;-82
2022/09/04 03:29:18;;;;;;;12.15;8.50;;;;;;;17.47;100.00;100594.78;4959579;28;20730;-82
2022/09/04 03:31:57;;;;;;;10.23;8.35;;;;;;;17.55;100.00;100590.38;4995451;28;20666;-81
2022/09/04 03:34:39;;;;;;;9.65;8.65;;;;;;;17.69;100.00;100593.81;4979548;28;20201;-82
2022/09/04 03:37:27;;;;;;;9.82;8.60;;;;;;;17.66;100.00;100593.81;4941346;28;20209;-80
2022/09/04 03:40:08;;;;;;;11.10;9.00;;;;;;;17.84;100.00;100593.72;4982965;28;20702;-81
2022/09/04 03:42:46;;;;;;;12.23;8.07;;;;;;;17.99;100.00;100598.88;4993285;28;20225;-81
2022/09/04 03:45:23;;;;;;;9.35;8.20;;;;;;;17.84;100.00;100598.97;4993521;28;20200;-82
2022/09/04 03:48:07;;;;;;;9.88;8.77;;;;;;;17.83;100.00;100597.22;4993650;28;20597;-82
2022/09/04 03:50:44;;;;;;;13.20;8.80;;;;;;;17.77;100.00;100592.00;4992765;28;20206;-80
2022/09/04 03:53:18;;;;;;;10.30;8.27;;;;;;;17.72;100.00;100593.81;4993687;28;20204;-81
2022/09/04 03:56:11;;;;;;;10.90;9.32;;;;;;;17.92;100.00;100588.41;4994400;28;20210;-82
2022/09/04 03:58:46;;;;;;;12.50;9.40;;;;;;;17.92;100.00;100591.91;4933352;29;20216;-81
2022/09/04 04:01:25;;;;;;;11.80;9.18;;;;;;;17.98;100.00;100601.50;4902296;29;20288;-82
2022/09/04 04:04:15;;;;;;;10.27;8.95;;;;;;;17.96;100.00;100598.88;4901928;29;20433;-80
2022/09/04 04:06:48;;;;;;;11.88;9.27;;;;;;;17.86;100.00;100596.34;4933733;29;20218;-82
2022/09/04 04:09:41;;;;;;;11.95;8.27;;;;;;;17.96;100.00;100598.88;4933856;29;20623;-80
2022/09/04 04:12:24;;;;;;;11.73;9.73;;;;;;;18.06;100.00;100608.44;4906289;29;20279;-80
2022/09/04 04:15:12;;;;;;;12.57;9.73;;;;;;;18.15;100.00;100604.88;4933539;29;20200;-80
2022/09/04 04:17:55;;;;;;;9.98;8.98;;;;;;;17.99;100.00;100618.97;4903753;29;20210;-80
2022/09/04 04:20:37;;;;;;;12.00;8.60;;;;;;;17.82;100.00;100605.97;4933163;29;20746;-81
2022/09/04 04:23:28;;;;;;;12.02;8.73;;;;;;;18.12;100.00;100595.25;4932782;29;20290;-81
2022/09/04 04:26:06;;;;;;;10.10;8.45;;;;;;;18.58;100.00;100615.94;4932451;29;20267;-80
2022/09/04 04:28:58;;;;;;;8.77;7.85;;;;;;;19.06;100.00;100644.34;4901484;29;20219;-80
2022/09/04 04:31:36;;;;;;;10.90;6.80;;;;;;;19.59;100.00;100661.31;4921781;29;20219;-81
2022/09/04 04:34:10;;;;;;;14.95;6.47;;;;;;;19.99;100.00;100674.81;4933096;29;20203;-81
2022/09/04 04:36:46;;;;;;;7.88;6.60;;;;;;;20.36;100.00;100685.72;4980037;28;20213;-79
2022/09/04 04:39:23;;;;;;;12.20;6.13;;;;;;;20.49;100.00;100697.81;4993124;28;20221;-81
2022/09/04 04:42:05;;;;;;;7.07;6.35;;;;;;;19.82;100.00;100693.47;4993704;28;20201;-82
2022/09/04 04:47:56;;;;;;;9.60;7.38;;;;;;;19.66;100.00;100678.75;4993541;28;20283;-82
2022/09/04 04:50:34;;;;;;;8.65;7.10;;;;;;;19.56;100.00;100690.28;4978734;28;20198;-82
2022/09/04 04:53:13;;;;;;;11.32;6.68;;;;;;;18.86;100.00;100672.59;4993012;28;20706;-76
2022/09/04 04:55:48;;;;;;;12.35;7.82;;;;;;;19.19;100.00;100689.81;4993151;28;20197;-81
2022/09/04 04:58:32;;;;;;;10.50;7.50;;;;;;;19.26;100.00;100697.59;4991993;28;20204;-82
2022/09/04 05:01:08;;;;;;;10.25;8.02;;;;;;;18.98;100.00;100703.16;4992907;28;20271;-81
2022/09/04 05:03:48;;;;;;;8.00;7.20;;;;;;;19.31;100.00;100719.47;4993180;28;20271;-72
2022/09/04 05:06:22;;;;;;;12.73;7.78;;;;;;;18.92;100.00;100719.84;4992523;28;20209;-80
2022/09/04 05:08:57;;;;;;;7.22;6.53;;;;;;;18.91;100.00;100719.84;4991258;28;20226;-79
2022/09/04 05:11:35;;;;;;;9.02;8.13;;;;;;;18.72;100.00;100708.63;4990299;28;20205;-78
2022/09/04 05:14:18;;;;;;;9.85;8.27;;;;;;;18.77;100.00;100722.59;4992231;28;20201;-74
2022/09/04 05:16:54;;;;;;;14.55;7.82;;;;;;;18.87;100.00;100719.00;4992362;28;20292;-80
2022/09/04 05:19:29;;;;;;;7.90;6.93;;;;;;;19.28;100.00;100730.00;4957985;28;20236;-80
2022/09/04 05:22:04;;;;;;;9.02;6.57;;;;;;;19.87;100.00;100733.75;4992338;28;20204;-78
2022/09/04 05:24:37;;;;;;;7.15;6.47;;;;;;;20.32;100.00;100748.13;4991926;28;20201;-77
2022/09/04 05:27:15;;;;;;;11.00;7.40;;;;;;;20.37;100.00;100766.50;4992343;28;20694;-73
2022/09/04 05:29:50;;;;;;;7.95;6.22;;;;;;;20.02;100.00;100775.69;4983628;28;20613;-73
2022/09/04 05:32:24;;;;;;;7.63;6.38;;;;;;;19.43;100.00;100772.84;4992616;28;20209;-74
2022/09/04 05:35:07;;;;;;;7.00;6.30;;;;;;;19.28;100.00;100763.31;4979900;28;20209;-75
2022/09/04 05:37:42;;;;;;;7.68;6.55;;;;;;;19.18;100.00;100759.91;4928396;28;20201;-74
2022/09/04 05:40:22;;;;;;;8.05;6.80;;;;;;;19.07;100.00;100763.53;4991997;28;20684;-75
2022/09/04 05:43:04;;;;;;;9.00;7.05;;;;;;;18.97;100.00;100760.09;4992239;28;20663;-74
2022/09/04 05:45:45;;;;;;;8.20;6.82;;;;;;;19.00;100.00;100765.34;4991525;28;20223;-77
2022/09/04 05:48:21;;;;;;;10.40;7.65;;;;;;;19.25;100.00;100787.03;4992412;28;20779;-75
2022/09/04 05:51:02;;;;;;;7.93;6.57;;;;;;;19.16;100.00;100795.84;4992366;28;20763;-75
2022/09/04 05:53:49;;;;;;;8.13;7.32;;;;;;;19.22;100.00;100784.44;4973431;28;20209;-74
2022/09/04 05:56:49;;;;;;;10.30;7.22;;;;;;;19.46;100.00;100788.59;4991180;28;20615;-75
2022/09/04 05:59:42;;;;;;;10.70;7.07;;;;;;;19.54;100.00;100792.03;4991870;28;20689;-75
2022/09/04 06:02:27;;;;;;;10.10;7.35;;;;;;;19.58;100.00;100793.75;4985744;28;20200;-75
2022/09/04 06:05:17;;;;;;;340.95;223.27;;;;;;;19.60;100.00;100789.34;4991932;28;20201;-71
2022/09/04 06:08:06;;;;;;;9.68;8.60;;;;;;;19.81;100.00;100791.72;4992416;28;20233;-76
2022/09/04 06:10:47;;;;;;;11.30;7.05;;;;;;;20.05;100.00;100801.97;4989183;28;20686;-72
2022/09/04 06:13:36;;;;;;;7.25;6.55;;;;;;;20.21;100.00;100819.34;4990307;28;20213;-78
2022/09/04 06:16:23;;;;;;;15.35;7.35;;;;;;;20.16;100.00;100825.53;4973144;28;20289;-75
2022/09/04 06:19:06;;;;;;;7.20;6.50;;;;;;;20.34;100.00;100819.19;4988860;28;20257;-77
2022/09/04 06:22:09;;;;;;;7.35;6.65;;;;;;;20.35;100.00;100815.69;4983938;28;20224;-77
2022/09/04 06:24:51;;;;;;;9.85;6.43;;;;;;;20.47;100.00;100820.81;4980593;28;20292;-74
2022/09/04 06:27:35;;;;;;;9.43;7.63;;;;;;;20.45;100.00;100812.03;4956695;28;20213;-75
2022/09/04 06:30:07;;;;;;;7.72;6.93;;;;;;;19.80;100.00;100817.19;4991060;28;20205;-74
2022/09/04 06:33:08;;;;;;;9.50;7.32;;;;;;;20.14;100.00;100825.56;4990457;28;20205;-74
2022/09/04 06:35:55;;;;;;;7.40;6.70;;;;;;;20.07;100.00;100823.91;4990299;28;20213;-73
2022/09/04 06:38:37;;;;;;;8.93;7.35;;;;;;;20.04;100.00;100816.06;4991378;28;20208;-73
2022/09/04 06:41:22;;;;;;;10.35;8.13;;;;;;;19.89;100.00;100816.22;4990571;28;20693;-76
2022/09/04 06:44:01;;;;;;;10.93;9.18;;;;;;;19.66;100.00;100782.25;4990164;28;20216;-76
2022/09/04 06:46:38;;;;;;;11.48;8.50;;;;;;;19.59;100.00;100806.00;4983885;28;20212;-73
2022/09/04 06:49:12;;;;;;;14.55;8.52;;;;;;;19.52;100.00;100810.47;4990193;28;20232;-74
2022/09/04 06:51:51;;;;;;;9.18;8.00;;;;;;;19.56;100.00;100811.31;4988695;28;20205;-74
2022/09/04 06:54:36;;;;;;;10.25;8.55;;;;;;;19.35;100.00;100808.84;4972609;28;20292;-74
2022/09/04 06:57:22;;;;;;;14.80;9.13;;;;;;;19.63;100.00;100810.34;4985422;28;21406;-76
2022/09/04 07:00:02;;;;;;;12.32;8.73;;;;;;;19.71;100.00;100801.50;4987759;28;20229;-79
2022/09/04 07:02:47;;;;;;;14.27;9.70;;;;;;;19.57;100.00;100803.41;4989816;28;20244;-79
2022/09/04 07:05:23;;;;;;;15.13;9.30;;;;;;;19.69;100.00;100794.53;5000732;28;20649;-78
2022/09/04 07:08:01;;;;;;;16.08;9.27;;;;;;;19.82;100.00;100796.13;4987688;28;20233;-75
2022/09/04 07:10:33;;;;;;;10.45;8.10;;;;;;;19.89;100.00;100802.19;4988243;28;20209;-76
2022/09/04 07:13:38;;;;;;;10.48;8.40;;;;;;;19.61;100.00;100793.72;4989862;28;20209;-76
2022/09/04 07:16:41;;;;;;;13.75;8.20;;;;;;;19.46;100.00;100789.47;4870286;29;20213;-78
2022/09/04 07:19:24;;;;;;;11.35;7.38;;;;;;;19.30;100.00;100788.72;4872713;29;20204;-77
2022/09/04 07:22:09;;;;;;;12.98;9.27;;;;;;;19.17;100.00;100758.16;4873292;29;20218;-78
2022/09/04 07:24:59;;;;;;;10.60;8.60;;;;;;;19.45;100.00;100781.59;4873410;29;20224;-74
2022/09/04 07:27:36;;;;;;;12.07;8.95;;;;;;;19.37;100.00;100773.75;4874151;29;20213;-78
2022/09/04 07:30:06;;;;;;;17.02;9.48;;;;;;;19.58;100.00;100780.59;4859373;29;20213;-76
2022/09/04 07:32:39;;;;;;;12.48;9.10;;;;;;;19.60;100.00;100787.59;4874080;29;20364;-76
2022/09/04 07:35:13;;;;;;;13.48;9.30;;;;;;;19.98;100.00;100789.78;4873660;29;20221;-75
2022/09/04 07:37:48;;;;;;;14.75;8.95;;;;;;;20.25;100.00;100799.09;4843078;29;20749;-78
2022/09/04 07:40:19;;;;;;;11.65;7.90;;;;;;;20.28;100.00;100788.56;4874163;29;20251;-74
2022/09/04 07:42:52;;;;;;;12.35;8.10;;;;;;;20.24;100.00;100798.22;4878054;29;20209;-77
2022/09/04 07:45:29;;;;;;;12.73;8.10;;;;;;;20.03;100.00;100792.34;4881144;29;20217;-77
2022/09/04 07:48:10;;;;;;;14.00;7.85;;;;;;;20.29;100.00;100795.56;4873852;29;20766;-75
2022/09/04 07:50:49;;;;;;;7.47;6.78;;;;;;;19.91;100.00;100785.47;4873893;29;20221;-76
2022/09/04 07:53:30;;;;;;;13.10;8.60;;;;;;;19.90;100.00;100773.22;4942158;28;20205;-78
2022/09/04 07:56:03;;;;;;;12.52;8.23;;;;;;;20.07;100.00;100789.69;4993922;28;20205;-76
2022/09/04 07:58:44;;;;;;;8.65;7.70;;;;;;;20.04;100.00;100787.09;4994072;28;20623;-75
2022/09/04 08:01:45;;;;;;;13.63;7.82;;;;;;;20.11;100.00;100779.97;4994187;28;20221;-76
2022/09/04 08:04:39;;;;;;;9.52;6.35;;;;;;;20.10;100.00;100791.38;4933555;29;20286;-76
2022/09/04 08:07:15;;;;;;;13.35;7.00;;;;;;;20.58;100.00;100805.72;4933817;29;22375;-75
2022/09/04 08:10:05;;;;;;;8.52;6.53;;;;;;;20.38;100.00;100799.84;4933853;29;20220;-76
2022/09/04 08:12:56;;;;;;;12.70;6.75;;;;;;;20.23;100.00;100807.00;4934030;29;20226;-75
2022/09/04 08:15:33;;;;;;;7.65;6.45;;;;;;;20.47;100.00;100805.00;4921594;29;20600;-76
2022/09/04 08:18:33;;;;;;;12.82;7.53;;;;;;;20.98;100.00;100809.47;4933755;29;20218;-75
2022/09/04 08:21:15;;;;;;;8.77;6.10;;;;;;;20.45;100.00;100812.91;4796703;29;20264;-76
2022/09/04 08:24:17;;;;;;;8.25;6.65;;;;;;;20.97;100.00;100807.75;4803516;29;20689;-76
2022/09/04 08:26:50;;;;;;;7.28;5.60;;;;;;;20.87;100.00;100821.09;4803429;29;20214;-76
2022/09/04 08:29:39;;;;;;;5.55;5.03;;;;;;;21.04;100.00;100824.34;4803638;29;20223;-76
2022/09/04 08:32:18;;;;;;;13.65;6.78;;;;;;;20.82;100.00;100807.13;4803474;29;20316;-74
2022/09/04 08:35:05;;;;;;;8.05;5.90;;;;;;;21.45;100.00;100836.88;4789349;29;20220;-76
2022/09/04 08:37:44;;;;;;;9.77;6.15;;;;;;;21.35;100.00;100811.53;4803815;29;20252;-76
2022/09/04 08:40:38;;;;;;;6.78;6.03;;;;;;;21.09;100.00;100804.03;4806875;29;20239;-75
2022/09/04 08:43:30;;;;;;;6.97;5.70;;;;;;;21.56;100.00;100832.28;4855912;29;20206;-75
2022/09/04 08:46:28;;;;;;;8.43;4.82;;;;;;;21.67;100.00;100854.94;4858223;29;20218;-74
2022/09/04 08:49:52;;;;;;;6.75;5.35;;;;;;;21.64;100.00;100854.13;4802967;29;20212;-75
2022/09/04 08:53:04;;;;;;;8.20;6.10;;;;;;;21.99;100.00;100866.72;4749849;30;20672;-81
2022/09/04 08:55:50;;;;;;;7.43;5.57;;;;;;;21.66;100.00;100808.31;4749691;30;20221;-74
2022/09/04 08:58:46;;;;;;;8.20;6.28;;;;;;;21.90;100.00;100857.22;4820605;29;20216;-77
2022/09/04 09:01:46;;;;;;;7.05;5.72;;;;;;;21.95;100.00;100863.25;4895161;29;20233;-75
2022/09/04 09:04:50;;;;;;;8.35;5.60;;;;;;;21.89;100.00;100859.84;4894584;29;20213;-79
2022/09/04 09:07:53;;;;;;;7.93;5.90;;;;;;;21.48;100.00;100857.91;4894702;29;20236;-75
2022/09/04 09:10:39;;;;;;;8.40;5.78;;;;;;;21.27;100.00;100844.19;4839591;29;20210;-78
2022/09/04 09:13:40;;;;;;;5.30;4.80;;;;;;;21.06;100.00;100833.97;4839216;29;20255;-76
2022/09/04 09:16:37;;;;;;;12.85;5.95;;;;;;;21.17;100.00;100834.69;4784728;29;20666;-78
2022/09/04 09:19:21;;;;;;;5.68;5.07;;;;;;;21.24;100.00;100841.63;4783825;29;20213;-79
2022/09/04 09:22:08;;;;;;;5.57;4.82;;;;;;;21.31;100.00;100849.41;4748883;30;20751;-77
2022/09/04 09:25:07;;;;;;;7.93;4.97;;;;;;;21.53;100.00;100856.09;4739814;30;20695;-74
2022/09/04 09:28:19;;;;;;;7.22;5.03;;;;;;;21.85;100.00;100837.03;4809918;29;20676;-77
2022/09/04 09:31:26;;;;;;;6.78;4.50;;;;;;;21.66;100.00;100854.97;4839094;29;20235;-79
2022/09/04 09:34:25;;;;;;;6.55;5.00;;;;;;;21.49;100.00;100849.13;4838943;29;20230;-71
2022/09/04 09:37:13;;;;;;;3.67;3.38;;;;;;;21.87;100.00;100851.09;4802684;29;20216;-72
2022/09/04 09:40:08;;;;;;;3.38;2.92;;;;;;;21.55;100.00;100818.19;4792824;29;20220;-77
2022/09/04 09:42:59;;;;;;;4.38;3.85;;;;;;;21.62;100.00;100822.47;4799874;29;20743;-77
2022/09/04 09:45:51;;;;;;;4.57;4.07;;;;;;;22.10;100.00;100818.06;4801797;29;20341;-77
2022/09/04 09:48:52;;;;;;;4.57;4.05;;;;;;;22.09;100.00;100821.59;4846419;29;20221;-77
2022/09/04 09:51:55;;;;;;;5.25;3.95;;;;;;;22.48;100.00;100803.16;4821016;29;20223;-78
2022/09/04 09:55:02;;;;;;;8.55;3.95;;;;;;;22.22;100.00;100840.72;4821547;29;20657;-79
2022/09/04 09:57:55;;;;;;;6.28;3.70;;;;;;;22.40;100.00;100831.53;4766218;30;20259;-77
2022/09/04 10:00:26;;;;;;;4.55;4.00;;;;;;;22.63;100.00;100813.38;4819633;29;20723;-78
2022/09/04 10:03:41;;;;;;;3.75;3.45;;;;;;;23.13;100.00;100836.03;4830497;29;20659;-78
2022/09/04 10:06:43;;;;;;;3.92;3.50;;;;;;;23.22;95.05;100847.25;4748169;30;20615;-79
2022/09/04 10:09:51;;;;;;;4.20;3.75;;;;;;;22.57;100.00;100847.91;4736772;30;20237;-79
2022/09/04 10:12:53;;;;;;;4.75;4.35;;;;;;;22.62;100.00;100848.66;4748464;30;20221;-80
2022/09/04 10:15:40;;;;;;;5.25;4.45;;;;;;;23.09;100.00;100843.19;4787299;29;20212;-78
2022/09/04 10:18:49;;;;;;;4.90;4.10;;;;;;;23.02;100.00;100836.31;4754299;30;20216;-73
2022/09/04 10:21:37;;;;;;;4.65;4.25;;;;;;;23.14;100.00;100837.78;4740220;30;20241;-77
2022/09/04 10:24:28;;;;;;;4.78;4.15;;;;;;;23.16;100.00;100850.06;4757653;30;20209;-75
2022/09/04 10:27:20;;;;;;;4.75;4.35;;;;;;;23.03;100.00;100843.34;4745002;30;20255;-78
2022/09/04 10:30:09;;;;;;;5.85;4.07;;;;;;;23.01;100.00;100837.19;4791660;29;20212;-80
2022/09/04 10:33:09;;;;;;;3.38;3.10;;;;;;;22.96;100.00;100831.16;4794401;29;20672;-75
2022/09/04 10:35:51;;;;;;;5.50;3.85;;;;;;;23.39;99.47;100846.00;4832580;29;20203;-78
2022/09/04 10:38:35;;;;;;;5.60;3.40;;;;;;;23.45;94.81;100841.44;4815409;29;20219;-76
2022/09/04 10:41:42;;;;;;;3.78;3.47;;;;;;;23.41;94.41;100844.16;4862508;29;20244;-79
2022/09/04 10:44:45;;;;;;;6.30;3.65;;;;;;;23.36;91.54;100827.53;4809591;29;20290;-77
2022/09/04 10:47:27;;;;;;;3.70;3.40;;;;;;;23.18;92.31;100824.44;4795567;29;20208;-79
2022/09/04 10:50:11;;;;;;;4.07;3.65;;;;;;;23.27;93.69;100836.56;4792026;29;20227;-78
2022/09/04 10:53:12;;;;;;;3.78;3.47;;;;;;;23.27;95.58;100854.22;4838526;29;20651;-78
2022/09/04 10:55:58;;;;;;;4.30;3.90;;;;;;;23.82;93.33;100853.72;4869071;29;20217;-76
2022/09/04 10:58:43;;;;;;;6.28;3.35;;;;;;;24.18;89.19;100850.97;4919324;29;20225;-78
2022/09/04 11:01:41;;;;;;;3.67;3.13;;;;;;;23.82;88.78;100838.69;4930568;29;20254;-78
2022/09/04 11:04:37;;;;;;;3.85;3.55;;;;;;;23.82;91.38;100846.66;4837578;29;20215;-76
2022/09/04 11:07:35;;;;;;;3.55;3.25;;;;;;;23.73;92.04;100823.03;4836151;29;20206;-77
2022/09/04 11:10:25;;;;;;;5.90;4.18;;;;;;;23.81;90.88;100838.72;4836210;29;20207;-75
2022/09/04 11:13:12;;;;;;;6.82;4.80;;;;;;;24.11;90.47;100825.47;4837420;29;20211;-76
2022/09/04 11:15:57;;;;;;;4.10;3.28;;;;;;;24.59;83.24;100840.91;4831620;29;20222;-84
2022/09/04 11:18:53;;;;;;;5.50;4.97;;;;;;;25.64;81.42;100814.50;4836694;29;20210;-82
2022/09/04 11:22:13;;;;;;;4.10;3.60;;;;;;;26.14;76.70;100842.78;4848245;29;20232;-83
2022/09/04 11:25:27;;;;;;;5.57;3.88;;;;;;;25.66;78.95;100820.59;4887522;29;20212;-81
2022/09/04 11:28:13;;;;;;;3.70;3.40;;;;;;;24.64;81.03;100764.72;4915123;29;20215;-83
2022/09/04 11:31:07;;;;;;;3.85;3.40;;;;;;;24.80;81.47;100811.06;4913220;29;20208;-76
2022/09/04 11:34:08;;;;;;;4.30;4.00;;;;;;;24.97;82.71;100808.75;4915372;29;20204;-77
2022/09/04 11:37:10;;;;;;;4.95;3.30;;;;;;;24.88;80.96;100809.06;4858834;29;20217;-79
2022/09/04 11:40:16;;;;;;;4.30;3.90;;;;;;;25.63;74.47;100799.47;4859104;29;20213;-78
2022/09/04 11:42:59;;;;;;;3.65;3.35;;;;;;;25.52;75.37;100812.25;4858781;29;20737;-76
2022/09/04 11:45:56;;;;;;;2.92;2.67;;;;;;;25.84;73.62;100819.97;4858897;29;20229;-77
2022/09/04 11:49:06;;;;;;;3.58;3.28;;;;;;;26.02;72.57;100805.13;4849024;29;20214;-76
2022/09/04 11:51:53;;;;;;;6.47;4.40;;;;;;;26.34;72.70;100809.28;4831942;29;20212;-78
2022/09/04 11:55:12;;;;;;;6.10;5.50;;;;;;;25.52;72.95;100812.25;4837601;29;20210;-78
2022/09/04 11:57:55;;;;;;;3.53;3.30;;;;;;;25.27;74.35;100800.69;4803516;29;20255;-78
2022/09/04 12:00:22;;;;;;;10.55;5.78;;;;;;;25.47;77.95;100812.38;4803266;29;20693;-79
2022/09/04 12:03:31;;;;;;;8.73;7.68;;;;;;;25.92;73.97;100807.28;4800010;29;20299;-79
2022/09/04 12:06:07;;;;;;;4.00;3.63;;;;;;;25.70;73.84;100774.41;4798037;29;20732;-76
2022/09/04 12:09:26;;;;;;;5.78;3.70;;;;;;;25.51;79.69;100787.47;4788592;29;20267;-78
2022/09/04 12:12:16;;;;;;;4.20;3.42;;;;;;;24.97;74.45;100774.25;4791005;29;20809;-78
2022/09/04 12:15:06;;;;;;;6.10;3.97;;;;;;;25.06;76.50;100779.28;4839064;29;20215;-78
2022/09/04 12:18:00;;;;;;;9.88;5.80;;;;;;;26.06;83.20;100782.84;4838196;29;20699;-81
2022/09/04 12:20:53;;;;;;;3.53;3.22;;;;;;;25.95;71.21;100799.19;4897263;29;20216;-80
2022/09/04 12:23:33;;;;;;;8.98;3.33;;;;;;;25.54;75.81;100784.72;4908809;29;20255;-80
2022/09/04 12:26:23;;;;;;;3.38;3.17;;;;;;;25.85;79.94;100787.16;4903106;29;20204;-83
2022/09/04 12:29:27;;;;;;;7.15;4.60;;;;;;;25.88;76.45;100789.69;4942457;28;20215;-80
2022/09/04 12:32:36;;;;;;;3.67;2.67;;;;;;;25.78;73.83;100798.94;4952446;28;20214;-79
2022/09/04 12:35:35;;;;;;;7.38;3.88;;;;;;;25.69;73.89;100804.56;4926451;29;20222;-80
2022/09/04 12:38:25;;;;;;;3.95;3.28;;;;;;;25.73;76.03;100794.69;4931372;29;20215;-79